Time;durP1;ratioP1;P1;durP2;ratioP2;P2;SDS_P1;SDS_P2;PMS_P1;PMS_P2;Temp;Humidity;BMP_temperature;BMP_pressure;BME280_temperature;BME280_humidity;BME280_pressure;Samples;Min_cycle;Max_cycle;Signal;HPM_P1;HPM_P2
2023/05/24 00:02:12;;;;;;;12.87;3.37;;;12.80;99.90;;;;;;5009490;28;20722;-77
2023/05/24 00:04:39;;;;;;;9.23;2.80;;;12.70;99.90;;;;;;5023935;28;20208;-75
2023/05/24 00:07:05;;;;;;;17.57;3.77;;;12.80;99.90;;;;;;5007059;28;20967;-76
2023/05/24 00:09:31;;;;;;;11.80;3.30;;;12.90;99.90;;;;;;5006499;28;20220;-76
2023/05/24 00:11:57;;;;;;;11.23;3.03;;;12.50;99.90;;;;;;5005873;28;20543;-75
2023/05/24 00:14:23;;;;;;;9.03;3.00;;;12.70;99.90;;;;;;5005720;28;20218;-75
2023/05/24 00:16:49;;;;;;;10.90;3.27;;;12.70;99.90;;;;;;5021510;28;21150;-76
2023/05/24 00:19:17;;;;;;;10.13;2.83;;;12.70;99.90;;;;;;5022591;28;20212;-76
2023/05/24 00:21:47;;;;;;;11.57;2.83;;;12.70;99.90;;;;;;5024379;28;20691;-75
2023/05/24 00:24:13;;;;;;;12.17;3.33;;;12.80;99.90;;;;;;5025068;28;20621;-75
2023/05/24 00:26:39;;;;;;;13.53;3.47;;;12.80;99.90;;;;;;5023225;28;20291;-76
2023/05/24 00:29:04;;;;;;;11.20;3.00;;;12.80;99.90;;;;;;5012117;28;20212;-77
2023/05/24 00:31:30;;;;;;;17.37;3.40;;;12.90;99.90;;;;;;5024326;28;20213;-75
2023/05/24 00:33:56;;;;;;;8.10;3.37;;;12.80;99.90;;;;;;5026748;28;20231;-76
2023/05/24 00:36:22;;;;;;;11.77;3.70;;;12.70;99.90;;;;;;5026678;28;20640;-75
2023/05/24 00:38:47;;;;;;;13.23;3.37;;;12.70;99.90;;;;;;5027551;28;20628;-75
2023/05/24 00:41:13;;;;;;;17.30;3.47;;;12.60;99.90;;;;;;5028032;28;20232;-78
2023/05/24 00:43:38;;;;;;;14.43;3.17;;;12.80;99.90;;;;;;5028967;28;20212;-74
2023/05/24 00:46:17;;;;;;;11.17;3.17;;;12.90;99.90;;;;;;5025514;28;20226;-75
2023/05/24 00:48:44;;;;;;;10.60;3.20;;;12.90;99.90;;;;;;5027581;28;20267;-76
2023/05/24 00:51:11;;;;;;;9.70;3.10;;;12.80;99.90;;;;;;5017121;28;20647;-77
2023/05/24 00:53:38;;;;;;;9.03;2.70;;;12.90;99.90;;;;;;5025689;28;20169;-76
2023/05/24 00:56:05;;;;;;;11.67;3.30;;;12.90;99.90;;;;;;5009603;28;20248;-77
2023/05/24 00:58:31;;;;;;;13.37;3.50;;;12.90;99.90;;;;;;5025986;28;20220;-75
2023/05/24 01:01:02;;;;;;;15.03;3.37;;;12.80;99.90;;;;;;5020826;28;20236;-76
2023/05/24 01:03:28;;;;;;;12.10;3.50;;;12.90;99.90;;;;;;5023966;28;20185;-77
2023/05/24 01:05:58;;;;;;;9.93;2.80;;;12.80;99.90;;;;;;5021562;28;20172;-75
2023/05/24 01:08:39;;;;;;;12.30;2.53;;;12.80;99.90;;;;;;5028558;28;20204;-75
2023/05/24 01:11:26;;;;;;;15.03;3.30;;;12.70;99.90;;;;;;5031441;28;20251;-75
2023/05/24 01:14:13;;;;;;;16.83;3.77;;;12.80;99.90;;;;;;5030061;28;20211;-75
2023/05/24 01:16:45;;;;;;;13.97;3.37;;;12.90;99.90;;;;;;5015426;28;20748;-76
2023/05/24 01:19:45;;;;;;;16.83;3.93;;;12.80;99.90;;;;;;5023336;28;20592;-75
2023/05/24 01:22:42;;;;;;;12.40;3.20;;;12.70;99.90;;;;;;5011411;28;20296;-75
2023/05/24 01:25:17;;;;;;;12.50;3.77;;;12.70;99.90;;;;;;5026995;28;20687;-75
2023/05/24 01:27:43;;;;;;;14.70;3.87;;;12.70;99.90;;;;;;5029489;28;20301;-75
2023/05/24 01:30:10;;;;;;;13.90;3.83;;;12.70;99.90;;;;;;5009467;28;20557;-75
2023/05/24 01:32:35;;;;;;;12.47;3.93;;;12.60;99.90;;;;;;5011623;28;20380;-75
2023/05/24 01:35:01;;;;;;;11.30;3.20;;;12.70;99.90;;;;;;5023813;28;20236;-75
2023/05/24 01:37:26;;;;;;;12.67;3.17;;;12.80;99.90;;;;;;5025101;28;20686;-76
2023/05/24 01:39:52;;;;;;;8.73;3.37;;;12.80;99.90;;;;;;5024229;28;20263;-75
2023/05/24 01:42:29;;;;;;;11.70;3.70;;;12.80;99.90;;;;;;5024104;28;20838;-75
2023/05/24 01:45:18;;;;;;;13.60;3.80;;;12.90;99.90;;;;;;5020688;28;20184;-78
2023/05/24 01:47:47;;;;;;;12.93;3.07;;;12.80;99.90;;;;;;5028515;28;20227;-75
2023/05/24 01:50:31;;;;;;;17.30;3.57;;;12.90;99.90;;;;;;5030534;28;20225;-76
2023/05/24 01:53:02;;;;;;;14.13;3.10;;;12.90;99.90;;;;;;5029211;28;20224;-74
2023/05/24 01:55:29;;;;;;;13.40;3.50;;;12.90;99.90;;;;;;5029904;28;20216;-75
2023/05/24 01:58:00;;;;;;;13.20;3.93;;;12.90;99.90;;;;;;5008293;28;20217;-74
2023/05/24 02:00:26;;;;;;;12.70;3.33;;;12.80;99.90;;;;;;5025913;28;20176;-74
2023/05/24 02:02:52;;;;;;;15.53;3.53;;;12.90;99.90;;;;;;5031559;28;20180;-77
2023/05/24 02:05:17;;;;;;;10.53;3.27;;;12.80;99.90;;;;;;5027277;28;20208;-75
2023/05/24 02:07:43;;;;;;;14.03;3.53;;;12.70;99.90;;;;;;5026026;28;20295;-74
2023/05/24 02:10:09;;;;;;;11.13;3.40;;;12.70;99.90;;;;;;5024298;28;20295;-74
2023/05/24 02:12:35;;;;;;;14.60;3.73;;;12.70;99.90;;;;;;5007330;28;20219;-74
2023/05/24 02:15:00;;;;;;;11.40;2.77;;;12.70;99.90;;;;;;5021192;28;20659;-78
2023/05/24 02:17:26;;;;;;;13.20;3.43;;;12.60;99.90;;;;;;5023757;28;20208;-77
2023/05/24 02:19:52;;;;;;;15.97;3.60;;;12.40;99.90;;;;;;5019581;28;20336;-76
2023/05/24 02:22:21;;;;;;;11.83;3.63;;;12.40;99.90;;;;;;5027460;28;20267;-76
2023/05/24 02:24:47;;;;;;;12.60;2.93;;;12.40;99.90;;;;;;5020369;28;20215;-75
2023/05/24 02:27:12;;;;;;;9.27;3.70;;;12.40;99.90;;;;;;5007531;28;20291;-75
2023/05/24 02:29:40;;;;;;;8.03;2.90;;;12.50;99.90;;;;;;5026915;28;20715;-75
2023/05/24 02:32:06;;;;;;;8.07;2.87;;;12.60;99.90;;;;;;5022018;28;20323;-75
2023/05/24 02:34:31;;;;;;;15.50;3.70;;;12.60;99.90;;;;;;5026165;28;20316;-77
2023/05/24 02:36:57;;;;;;;13.77;3.53;;;12.60;99.90;;;;;;5026978;28;20266;-75
2023/05/24 02:39:23;;;;;;;12.07;3.07;;;12.50;99.90;;;;;;5022589;28;20239;-76
2023/05/24 02:41:49;;;;;;;14.37;3.73;;;12.30;99.90;;;;;;5010723;28;20644;-76
2023/05/24 02:44:15;;;;;;;11.13;3.90;;;12.40;99.90;;;;;;5023411;28;20209;-77
2023/05/24 02:46:40;;;;;;;13.83;3.60;;;12.50;99.90;;;;;;5009308;28;20217;-77
2023/05/24 02:49:06;;;;;;;14.33;3.83;;;12.50;99.90;;;;;;5022972;28;20731;-76
2023/05/24 02:51:32;;;;;;;14.20;3.80;;;12.40;99.90;;;;;;5025648;28;20219;-76
2023/05/24 02:53:57;;;;;;;21.13;4.63;;;12.30;99.90;;;;;;5019367;28;20230;-76
2023/05/24 02:56:25;;;;;;;18.90;3.60;;;12.00;99.90;;;;;;5011825;28;20687;-77
2023/05/24 02:58:53;;;;;;;14.57;3.90;;;12.10;99.90;;;;;;5026751;28;20282;-78
2023/05/24 03:01:19;;;;;;;11.03;4.37;;;12.10;99.90;;;;;;5022027;28;20223;-76
2023/05/24 03:03:45;;;;;;;14.67;3.50;;;12.20;99.90;;;;;;5030731;28;20220;-77
2023/05/24 03:06:12;;;;;;;14.77;4.03;;;12.20;99.90;;;;;;5018507;28;20224;-76
2023/05/24 03:08:39;;;;;;;13.67;3.70;;;12.00;99.90;;;;;;5025068;28;20260;-75
2023/05/24 03:11:05;;;;;;;12.73;3.70;;;11.90;99.90;;;;;;5028692;28;20212;-76
2023/05/24 03:13:30;;;;;;;14.67;3.97;;;12.00;99.90;;;;;;5026890;28;20215;-76
2023/05/24 03:15:56;;;;;;;21.30;4.03;;;12.10;99.90;;;;;;5027587;28;20315;-75
2023/05/24 03:18:22;;;;;;;17.83;4.50;;;12.10;99.90;;;;;;5007187;28;20648;-76
2023/05/24 03:20:47;;;;;;;12.97;4.00;;;12.10;99.90;;;;;;5027068;28;20713;-75
2023/05/24 03:23:13;;;;;;;12.70;4.13;;;11.90;99.90;;;;;;5023495;28;20706;-76
2023/05/24 03:25:40;;;;;;;15.77;4.50;;;12.00;99.90;;;;;;5024233;28;20286;-77
2023/05/24 03:28:05;;;;;;;23.10;4.47;;;11.90;99.90;;;;;;5019847;28;20231;-77
2023/05/24 03:30:32;;;;;;;17.47;3.97;;;12.00;99.90;;;;;;5026308;28;20295;-77
2023/05/24 03:32:57;;;;;;;14.63;4.07;;;12.00;99.90;;;;;;5024362;28;20207;-75
2023/05/24 03:35:23;;;;;;;16.10;3.93;;;12.00;99.90;;;;;;5022058;28;20715;-76
2023/05/24 03:37:49;;;;;;;14.20;3.90;;;12.10;99.90;;;;;;5001285;28;20296;-76
2023/05/24 03:40:15;;;;;;;18.47;4.20;;;12.20;99.90;;;;;;5023871;28;20209;-75
2023/05/24 03:42:40;;;;;;;12.17;3.70;;;12.10;99.90;;;;;;5008069;28;20208;-75
2023/05/24 03:45:07;;;;;;;10.87;3.83;;;12.20;99.90;;;;;;5013923;28;20176;-76
2023/05/24 03:47:32;;;;;;;14.40;3.73;;;12.20;99.90;;;;;;5025460;28;20204;-76
2023/05/24 03:49:58;;;;;;;14.83;4.10;;;12.10;99.90;;;;;;5024570;28;20710;-76
2023/05/24 03:52:24;;;;;;;13.43;3.67;;;12.10;99.90;;;;;;5016454;28;20754;-76
2023/05/24 03:54:49;;;;;;;13.70;3.93;;;12.10;99.90;;;;;;5012169;28;20265;-74
2023/05/24 03:57:16;;;;;;;13.10;3.47;;;12.10;99.90;;;;;;5024928;28;20232;-75
2023/05/24 03:59:41;;;;;;;12.70;3.50;;;11.70;99.90;;;;;;5019178;28;20173;-75
2023/05/24 04:02:07;;;;;;;12.73;3.53;;;11.90;99.90;;;;;;5006662;28;20709;-76
2023/05/24 04:04:33;;;;;;;11.40;3.63;;;12.10;99.90;;;;;;5022555;28;20205;-77
2023/05/24 04:06:58;;;;;;;11.23;3.93;;;12.20;99.90;;;;;;5021598;28;20220;-75
2023/05/24 04:09:24;;;;;;;11.50;3.33;;;12.20;99.90;;;;;;5021718;28;20196;-76
2023/05/24 04:11:50;;;;;;;14.53;5.33;;;12.10;99.90;;;;;;5025685;28;20181;-77
2023/05/24 04:14:16;;;;;;;9.97;3.20;;;12.10;99.90;;;;;;5024545;28;20212;-76
2023/05/24 04:16:43;;;;;;;17.83;4.07;;;12.30;99.90;;;;;;5008782;28;20235;-78
2023/05/24 04:19:10;;;;;;;14.60;3.60;;;12.40;99.90;;;;;;5016520;28;20247;-76
2023/05/24 04:21:36;;;;;;;20.60;4.37;;;12.30;99.90;;;;;;5023062;28;20727;-77
2023/05/24 04:24:03;;;;;;;17.13;3.90;;;12.20;99.90;;;;;;5025078;28;20223;-77
2023/05/24 04:26:29;;;;;;;19.20;4.67;;;12.10;99.90;;;;;;5005249;28;20213;-77
2023/05/24 04:28:56;;;;;;;11.60;3.50;;;12.00;99.90;;;;;;5025168;28;20239;-79
2023/05/24 04:31:22;;;;;;;20.17;4.17;;;12.20;99.90;;;;;;5025699;28;20213;-76
2023/05/24 04:33:48;;;;;;;13.90;4.03;;;12.30;99.90;;;;;;5024038;28;20204;-77
2023/05/24 04:36:15;;;;;;;11.03;3.70;;;12.50;99.90;;;;;;5029690;28;20205;-77
2023/05/24 04:38:40;;;;;;;19.03;4.13;;;12.40;99.90;;;;;;5029976;28;20267;-76
2023/05/24 04:41:06;;;;;;;11.17;3.60;;;12.10;99.90;;;;;;5027086;28;20204;-76
2023/05/24 04:43:33;;;;;;;15.07;4.27;;;12.00;99.90;;;;;;5032264;28;20687;-76
2023/05/24 04:45:59;;;;;;;18.70;4.80;;;11.80;99.90;;;;;;5023309;28;20236;-79
2023/05/24 04:48:24;;;;;;;15.70;4.63;;;11.90;99.90;;;;;;5027644;28;20706;-77
2023/05/24 04:50:54;;;;;;;23.10;4.77;;;12.10;99.90;;;;;;5026149;28;20211;-76
2023/05/24 04:53:20;;;;;;;15.83;4.13;;;12.20;99.90;;;;;;5027219;28;20206;-77
2023/05/24 04:55:47;;;;;;;13.73;3.90;;;12.10;99.90;;;;;;5026643;28;20350;-78
2023/05/24 04:58:13;;;;;;;16.17;4.20;;;12.20;99.90;;;;;;5008297;28;20227;-78
2023/05/24 05:00:39;;;;;;;14.97;4.67;;;12.20;99.90;;;;;;5032738;28;20208;-73
2023/05/24 05:03:04;;;;;;;19.60;5.00;;;12.00;99.90;;;;;;5028548;28;20675;-75
2023/05/24 05:05:30;;;;;;;18.43;4.57;;;12.20;99.90;;;;;;5029111;28;20340;-76
2023/05/24 05:07:56;;;;;;;15.73;5.23;;;12.20;99.90;;;;;;5053606;23;20702;-75
2023/05/24 05:10:22;;;;;;;16.73;4.50;;;12.20;99.90;;;;;;5050689;28;20215;-75
2023/05/24 05:12:48;;;;;;;19.07;5.07;;;12.30;99.90;;;;;;5043708;28;20261;-77
2023/05/24 05:15:13;;;;;;;17.50;4.77;;;12.10;99.90;;;;;;5044513;28;20325;-76
2023/05/24 05:17:39;;;;;;;24.60;4.77;;;12.10;99.90;;;;;;5046553;28;20295;-74
2023/05/24 05:20:06;;;;;;;15.97;4.67;;;12.20;99.90;;;;;;5044046;28;20207;-75
2023/05/24 05:22:31;;;;;;;22.27;5.40;;;11.90;99.90;;;;;;5044816;28;20206;-74
2023/05/24 05:24:57;;;;;;;21.10;4.93;;;11.90;99.90;;;;;;5043902;28;20303;-75
2023/05/24 05:27:22;;;;;;;19.03;5.47;;;12.00;99.90;;;;;;5042031;28;20196;-74
2023/05/24 05:29:48;;;;;;;19.57;5.53;;;12.20;99.90;;;;;;5045392;28;20172;-74
2023/05/24 05:32:14;;;;;;;14.13;4.67;;;12.40;99.90;;;;;;5044787;28;20278;-75
2023/05/24 05:34:40;;;;;;;20.57;5.40;;;12.40;99.90;;;;;;5043850;28;20281;-76
2023/05/24 05:37:06;;;;;;;14.60;4.97;;;12.40;99.90;;;;;;5040429;28;20212;-75
2023/05/24 05:39:32;;;;;;;14.47;5.23;;;12.10;99.90;;;;;;5048506;28;20274;-74
2023/05/24 05:41:57;;;;;;;19.77;5.50;;;12.30;99.90;;;;;;5055301;28;20226;-75
2023/05/24 05:44:23;;;;;;;14.53;4.70;;;12.40;99.90;;;;;;5052232;28;20592;-73
2023/05/24 05:46:49;;;;;;;19.60;5.20;;;12.10;99.90;;;;;;5042900;28;20757;-74
2023/05/24 05:49:17;;;;;;;17.97;5.37;;;12.30;99.90;;;;;;5039588;28;20208;-74
2023/05/24 05:51:43;;;;;;;17.20;5.27;;;12.40;99.90;;;;;;5055470;28;20740;-74
2023/05/24 05:54:13;;;;;;;17.70;5.17;;;12.50;99.90;;;;;;5051960;28;20175;-74
2023/05/24 05:56:44;;;;;;;17.40;5.13;;;12.10;99.90;;;;;;5045706;28;20199;-75
2023/05/24 05:59:18;;;;;;;21.87;5.00;;;12.20;99.90;;;;;;5042759;28;20218;-74
2023/05/24 06:01:47;;;;;;;22.50;5.83;;;12.20;99.90;;;;;;5047149;28;20702;-76
2023/05/24 06:04:14;;;;;;;24.17;5.93;;;12.20;99.90;;;;;;5031550;28;20661;-74
2023/05/24 06:06:39;;;;;;;22.27;4.90;;;12.50;99.90;;;;;;5044337;28;20306;-75
2023/05/24 06:09:05;;;;;;;27.20;6.10;;;12.50;99.90;;;;;;5044608;28;20310;-77
2023/05/24 06:11:31;;;;;;;22.13;5.17;;;12.50;99.90;;;;;;5042915;28;20204;-76
2023/05/24 06:13:56;;;;;;;29.83;5.73;;;12.50;99.90;;;;;;5031205;28;20215;-76
2023/05/24 06:16:22;;;;;;;22.43;5.43;;;12.60;99.90;;;;;;5042767;28;20314;-75
2023/05/24 06:18:48;;;;;;;24.13;6.00;;;12.70;99.90;;;;;;5045821;28;20817;-75
2023/05/24 06:21:14;;;;;;;15.63;5.27;;;12.80;99.90;;;;;;5046240;28;21035;-74
2023/05/24 06:23:40;;;;;;;22.83;5.40;;;13.00;99.90;;;;;;5045197;28;20172;-74
2023/05/24 06:26:09;;;;;;;27.17;6.70;;;12.50;99.90;;;;;;5047644;28;20416;-74
2023/05/24 06:28:35;;;;;;;23.67;6.23;;;12.30;99.90;;;;;;5032577;28;20211;-74
2023/05/24 06:31:02;;;;;;;22.20;6.70;;;12.40;99.90;;;;;;5049231;28;20235;-76
2023/05/24 06:33:27;;;;;;;22.47;5.70;;;12.30;99.90;;;;;;5027196;28;20192;-75
2023/05/24 06:35:53;;;;;;;19.50;5.33;;;12.30;99.90;;;;;;5029573;28;20733;-76
2023/05/24 06:38:19;;;;;;;26.30;6.00;;;12.50;99.90;;;;;;5043555;28;20751;-74
2023/05/24 06:40:44;;;;;;;25.20;5.93;;;12.50;99.90;;;;;;5044065;28;20199;-75
2023/05/24 06:43:10;;;;;;;19.83;5.73;;;12.40;99.90;;;;;;5028729;28;20287;-75
2023/05/24 06:45:36;;;;;;;22.03;5.87;;;12.40;99.90;;;;;;5043220;28;20579;-74
2023/05/24 06:48:02;;;;;;;22.47;6.73;;;12.40;99.90;;;;;;5041527;28;20196;-74
2023/05/24 06:50:27;;;;;;;21.70;5.90;;;12.50;99.90;;;;;;5041473;28;20329;-75
2023/05/24 06:52:53;;;;;;;17.83;5.63;;;12.70;99.90;;;;;;5040898;28;20751;-75
2023/05/24 06:55:19;;;;;;;25.73;8.73;;;12.90;99.90;;;;;;5036917;28;20732;-75
2023/05/24 06:57:45;;;;;;;19.65;5.53;;;12.90;99.90;;;;;;5038138;28;20698;-75
2023/05/24 07:00:11;;;;;;;21.60;6.00;;;13.00;99.90;;;;;;5030711;28;20180;-74
2023/05/24 07:02:38;;;;;;;25.13;6.60;;;13.00;99.90;;;;;;5031957;28;20555;-76
2023/05/24 07:05:05;;;;;;;20.77;6.43;;;12.70;99.90;;;;;;5037664;28;20200;-75
2023/05/24 07:07:31;;;;;;;23.15;5.85;;;12.60;99.90;;;;;;5040509;28;20242;-74
2023/05/24 07:09:56;;;;;;;21.90;6.47;;;12.90;99.90;;;;;;5046674;28;20698;-75
2023/05/24 07:12:22;;;;;;;22.02;6.90;;;13.00;99.90;;;;;;5040367;28;20177;-74
2023/05/24 07:14:48;;;;;;;24.40;5.60;;;13.00;99.90;;;;;;5047470;28;20638;-75
2023/05/24 07:17:14;;;;;;;25.88;6.70;;;13.00;99.90;;;;;;5038972;28;20215;-75
2023/05/24 07:19:40;;;;;;;25.30;6.18;;;13.10;99.90;;;;;;5026804;28;20199;-73
2023/05/24 07:22:06;;;;;;;25.13;6.20;;;13.20;99.90;;;;;;5028939;28;20219;-74
2023/05/24 07:24:31;;;;;;;22.92;6.20;;;13.00;99.90;;;;;;5041394;28;20204;-75
2023/05/24 07:26:57;;;;;;;17.15;6.05;;;13.10;99.90;;;;;;5023442;28;20176;-77
2023/05/24 07:29:24;;;;;;;19.83;4.80;;;12.90;99.90;;;;;;5039678;28;20204;-75
2023/05/24 07:31:50;;;;;;;17.15;5.10;;;13.00;99.90;;;;;;5044717;28;20203;-74
2023/05/24 07:34:15;;;;;;;20.05;6.22;;;13.10;99.90;;;;;;5037349;28;20273;-74
2023/05/24 07:36:41;;;;;;;17.48;6.20;;;13.50;99.90;;;;;;5049142;28;20771;-75
2023/05/24 07:39:09;;;;;;;20.75;7.32;;;13.80;99.90;;;;;;5041273;28;20214;-75
2023/05/24 07:41:35;;;;;;;22.95;6.45;;;13.80;99.90;;;;;;5028671;28;20207;-75
2023/05/24 07:44:01;;;;;;;25.48;7.05;;;13.90;99.90;;;;;;5044550;28;20224;-74
2023/05/24 07:46:26;;;;;;;16.50;5.70;;;13.90;99.90;;;;;;5048901;28;20204;-76
2023/05/24 07:48:52;;;;;;;21.75;6.30;;;13.90;99.90;;;;;;5046282;28;20297;-74
2023/05/24 07:51:19;;;;;;;25.88;7.68;;;13.70;99.90;;;;;;5040514;28;20579;-73
2023/05/24 07:53:45;;;;;;;23.13;7.15;;;13.80;99.90;;;;;;5043498;28;20175;-75
2023/05/24 07:56:10;;;;;;;20.13;6.30;;;13.80;99.90;;;;;;5031474;28;20215;-75
2023/05/24 07:58:36;;;;;;;21.52;7.03;;;13.30;99.90;;;;;;5048013;28;20223;-71
2023/05/24 08:01:02;;;;;;;20.15;5.68;;;13.40;99.90;;;;;;5031304;28;20225;-76
2023/05/24 08:03:28;;;;;;;22.75;6.13;;;13.20;99.90;;;;;;5030748;28;20184;-74
2023/05/24 08:05:54;;;;;;;30.48;6.95;;;13.60;99.90;;;;;;5049897;28;20180;-76
2023/05/24 08:08:19;;;;;;;19.30;6.80;;;13.80;99.90;;;;;;5048453;28;20218;-74
2023/05/24 08:10:45;;;;;;;19.73;5.97;;;13.90;99.90;;;;;;5053393;28;20203;-75
2023/05/24 08:13:12;;;;;;;19.27;5.20;;;14.10;99.90;;;;;;5031928;28;20287;-76
2023/05/24 08:15:37;;;;;;;22.60;6.50;;;14.10;99.90;;;;;;5055368;28;20400;-75
2023/05/24 08:18:04;;;;;;;19.25;5.03;;;14.00;99.90;;;;;;5058793;28;20203;-76
2023/05/24 08:20:30;;;;;;;21.10;5.60;;;13.70;99.90;;;;;;5038850;28;20596;-75
2023/05/24 08:22:55;;;;;;;22.70;6.45;;;13.30;99.90;;;;;;5030102;28;20208;-76
2023/05/24 08:25:21;;;;;;;18.58;5.75;;;13.60;99.90;;;;;;5052559;28;20231;-75
2023/05/24 08:27:46;;;;;;;25.80;7.65;;;13.60;99.90;;;;;;5050260;28;20204;-75
2023/05/24 08:30:13;;;;;;;22.05;5.40;;;13.90;99.90;;;;;;5051074;28;20194;-75
2023/05/24 08:32:38;;;;;;;17.67;5.70;;;14.00;99.90;;;;;;5052431;28;20186;-76
2023/05/24 08:35:04;;;;;;;17.75;5.63;;;13.90;99.90;;;;;;5034785;28;20588;-75
2023/05/24 08:37:32;;;;;;;21.00;6.07;;;14.00;99.90;;;;;;5052281;28;20697;-75
2023/05/24 08:39:58;;;;;;;16.23;5.43;;;14.20;99.90;;;;;;5033102;28;20222;-76
2023/05/24 08:42:24;;;;;;;14.10;4.50;;;13.60;99.90;;;;;;5051811;28;20163;-75
2023/05/24 08:45:02;;;;;;;18.42;6.18;;;13.60;99.90;;;;;;5052445;28;20749;-76
2023/05/24 08:47:29;;;;;;;19.05;5.65;;;13.70;99.90;;;;;;5032319;28;20245;-75
2023/05/24 08:49:56;;;;;;;16.10;5.05;;;13.60;99.90;;;;;;5038178;28;20212;-76
2023/05/24 08:52:22;;;;;;;19.67;5.40;;;13.70;99.90;;;;;;5065974;28;20254;-76
2023/05/24 08:54:49;;;;;;;23.10;4.85;;;13.90;99.90;;;;;;5061918;28;20799;-75
2023/05/24 08:57:16;;;;;;;20.63;5.40;;;14.00;99.90;;;;;;5032081;28;20721;-77
2023/05/24 08:59:42;;;;;;;15.05;4.75;;;13.90;99.90;;;;;;5047387;28;20203;-77
2023/05/24 09:02:15;;;;;;;16.00;4.63;;;14.00;99.90;;;;;;5037401;28;20568;-76
2023/05/24 09:04:43;;;;;;;20.08;5.47;;;13.90;99.90;;;;;;5036741;28;20207;-77
2023/05/24 09:07:11;;;;;;;18.38;5.07;;;14.10;99.90;;;;;;5039985;28;20211;-77
2023/05/24 09:09:43;;;;;;;17.90;4.97;;;14.00;99.90;;;;;;5039271;28;20216;-76
2023/05/24 09:12:13;;;;;;;17.98;5.28;;;14.20;99.90;;;;;;5050587;28;20172;-77
2023/05/24 09:14:45;;;;;;;13.80;4.78;;;14.20;99.90;;;;;;5052724;28;20274;-77
2023/05/24 09:17:14;;;;;;;21.70;5.28;;;14.40;99.90;;;;;;5065494;28;20726;-76
2023/05/24 09:19:44;;;;;;;18.58;4.88;;;14.20;99.90;;;;;;5061536;28;20208;-77
2023/05/24 09:22:18;;;;;;;17.10;4.82;;;14.40;99.90;;;;;;5057858;28;20204;-78
2023/05/24 09:24:47;;;;;;;17.50;5.45;;;14.40;99.90;;;;;;5053392;28;20207;-77
2023/05/24 09:27:16;;;;;;;19.42;5.43;;;14.10;99.90;;;;;;5041313;28;20245;-78
2023/05/24 09:29:45;;;;;;;17.77;4.90;;;14.20;99.90;;;;;;5029167;28;20180;-77
2023/05/24 09:32:13;;;;;;;20.45;5.20;;;14.00;99.90;;;;;;5051344;28;20211;-75
2023/05/24 09:34:40;;;;;;;18.42;4.97;;;14.20;99.90;;;;;;5044324;28;20223;-77
2023/05/24 09:37:12;;;;;;;14.20;5.05;;;13.70;99.90;;;;;;5050420;28;20223;-77
2023/05/24 09:39:40;;;;;;;17.65;5.65;;;13.70;99.90;;;;;;5047244;28;20216;-77
2023/05/24 09:42:06;;;;;;;19.50;5.05;;;13.80;99.90;;;;;;5065435;28;20183;-77
2023/05/24 09:44:32;;;;;;;12.85;4.70;;;14.20;99.90;;;;;;5061240;28;20275;-77
2023/05/24 09:47:05;;;;;;;15.10;4.57;;;14.20;99.90;;;;;;5044703;28;20287;-77
2023/05/24 09:49:31;;;;;;;14.90;4.80;;;14.20;99.90;;;;;;5062265;28;20207;-77
2023/05/24 09:51:57;;;;;;;13.57;4.22;;;14.30;99.90;;;;;;5059364;28;20279;-78
2023/05/24 09:54:25;;;;;;;17.25;5.10;;;14.30;99.90;;;;;;5057027;28;20187;-78
2023/05/24 09:56:51;;;;;;;17.83;5.22;;;14.30;99.90;;;;;;5047511;28;20200;-77
2023/05/24 09:59:17;;;;;;;15.38;4.90;;;14.40;99.90;;;;;;5052709;28;20207;-76
2023/05/24 10:01:45;;;;;;;12.48;4.50;;;14.50;99.90;;;;;;5047670;28;20698;-77
2023/05/24 10:04:11;;;;;;;20.58;8.30;;;14.40;99.90;;;;;;5042984;28;20204;-77
2023/05/24 10:06:37;;;;;;;17.33;5.60;;;14.30;99.90;;;;;;5042896;28;20715;-75
2023/05/24 10:09:05;;;;;;;18.00;5.05;;;14.20;99.90;;;;;;5037806;28;20258;-77
2023/05/24 10:11:32;;;;;;;13.02;4.53;;;14.30;99.90;;;;;;5053620;28;20231;-77
2023/05/24 10:13:58;;;;;;;14.70;4.40;;;14.50;99.90;;;;;;5045878;28;20211;-77
2023/05/24 10:16:24;;;;;;;12.52;4.18;;;14.50;99.90;;;;;;5048940;28;20232;-75
2023/05/24 10:18:50;;;;;;;21.52;4.82;;;14.60;99.90;;;;;;5030688;28;20222;-77
2023/05/24 10:21:18;;;;;;;16.65;4.88;;;14.50;99.90;;;;;;5041022;28;20267;-76
2023/05/24 10:23:48;;;;;;;11.75;4.40;;;14.50;99.90;;;;;;5027357;28;20690;-77
2023/05/24 10:26:15;;;;;;;11.77;3.90;;;14.40;99.90;;;;;;5042086;28;20243;-76
2023/05/24 10:28:43;;;;;;;10.75;4.68;;;14.60;99.90;;;;;;5045217;28;20211;-77
2023/05/24 10:31:16;;;;;;;13.43;4.13;;;15.00;99.90;;;;;;5038766;28;20207;-76
2023/05/24 10:33:43;;;;;;;13.93;4.15;;;15.00;99.90;;;;;;5042925;28;20280;-77
2023/05/24 10:36:13;;;;;;;14.77;4.78;;;15.10;99.90;;;;;;5043413;28;20706;-76
2023/05/24 10:38:39;;;;;;;12.30;4.78;;;15.40;99.90;;;;;;5041492;28;20199;-76
2023/05/24 10:41:08;;;;;;;12.52;3.53;;;15.80;99.90;;;;;;5030692;28;20283;-77
2023/05/24 10:43:35;;;;;;;11.82;3.85;;;16.10;99.90;;;;;;5041843;28;20204;-77
2023/05/24 10:46:03;;;;;;;8.88;4.15;;;16.40;99.90;;;;;;5038531;28;20573;-77
2023/05/24 10:48:28;;;;;;;12.63;4.30;;;16.40;99.90;;;;;;5041461;28;20273;-77
2023/05/24 10:50:55;;;;;;;12.10;4.38;;;16.10;99.90;;;;;;5049549;28;20168;-77
2023/05/24 10:53:26;;;;;;;12.43;3.65;;;16.10;99.90;;;;;;5030527;28;20294;-77
2023/05/24 10:56:05;;;;;;;9.45;3.50;;;16.00;99.90;;;;;;5041465;28;20219;-77
2023/05/24 10:58:34;;;;;;;9.73;3.33;;;16.10;99.90;;;;;;5043358;28;20230;-77
2023/05/24 11:01:00;;;;;;;11.68;3.70;;;16.20;99.90;;;;;;5047675;28;20349;-76
2023/05/24 11:03:32;;;;;;;11.48;3.45;;;16.30;99.90;;;;;;5041837;28;20207;-77
2023/05/24 11:05:58;;;;;;;12.88;3.47;;;16.20;99.90;;;;;;5032671;28;20184;-77
2023/05/24 11:08:34;;;;;;;9.48;3.20;;;16.00;99.90;;;;;;5046529;28;20216;-76
2023/05/24 11:11:11;;;;;;;9.48;3.60;;;15.60;99.90;;;;;;5038634;28;20208;-76
2023/05/24 11:13:37;;;;;;;12.38;3.75;;;15.50;99.90;;;;;;5041663;28;20235;-76
2023/05/24 11:16:04;;;;;;;14.98;3.88;;;15.60;99.90;;;;;;5042308;28;20255;-77
2023/05/24 11:18:30;;;;;;;14.30;4.00;;;15.50;99.90;;;;;;5038673;28;20216;-76
2023/05/24 11:20:58;;;;;;;12.77;4.10;;;15.30;99.90;;;;;;5043286;28;20183;-77
2023/05/24 11:23:24;;;;;;;10.57;3.72;;;15.40;99.90;;;;;;5037963;28;20208;-77
2023/05/24 11:25:51;;;;;;;8.15;3.47;;;15.40;99.90;;;;;;5043379;28;20238;-76
2023/05/24 11:28:17;;;;;;;13.43;4.10;;;15.50;99.90;;;;;;5044818;28;20318;-77
2023/05/24 11:30:45;;;;;;;8.80;3.30;;;15.80;99.90;;;;;;5048621;28;20212;-77
2023/05/24 11:33:23;;;;;;;6.38;3.22;;;16.00;99.90;;;;;;5044314;28;20171;-77
2023/05/24 11:35:53;;;;;;;7.55;3.90;;;16.00;99.90;;;;;;5045229;28;20227;-77
2023/05/24 11:38:20;;;;;;;8.35;2.97;;;16.00;99.90;;;;;;5047929;28;20211;-77
2023/05/24 11:40:47;;;;;;;9.75;3.20;;;16.40;99.90;;;;;;5042806;28;20204;-77
2023/05/24 11:43:19;;;;;;;12.25;3.78;;;16.50;99.90;;;;;;5044490;28;20235;-76
2023/05/24 11:45:49;;;;;;;11.63;4.00;;;16.90;99.90;;;;;;5028303;28;20199;-78
2023/05/24 11:48:18;;;;;;;6.80;2.83;;;16.90;99.90;;;;;;5047072;28;20199;-78
2023/05/24 11:50:47;;;;;;;23.92;12.23;;;16.60;99.90;;;;;;5039920;28;20171;-76
2023/05/24 11:53:19;;;;;;;33.00;19.27;;;16.40;99.90;;;;;;5040524;28;20204;-78
2023/05/24 11:55:45;;;;;;;7.50;3.60;;;16.60;99.90;;;;;;5040363;28;20698;-77
2023/05/24 11:58:47;;;;;;;11.18;4.82;;;16.70;99.90;;;;;;5044634;28;20294;-77
2023/05/24 12:01:27;;;;;;;13.10;5.70;;;16.70;99.90;;;;;;5019225;28;20435;-76
2023/05/24 12:03:53;;;;;;;7.25;4.38;;;16.40;99.90;;;;;;5043786;28;20442;-77
2023/05/24 12:06:20;;;;;;;12.88;4.22;;;15.90;99.90;;;;;;5048488;28;20715;-77
2023/05/24 12:08:47;;;;;;;8.85;5.63;;;16.00;99.90;;;;;;5023595;28;20402;-76
2023/05/24 12:11:13;;;;;;;6.55;3.10;;;15.90;99.90;;;;;;5043432;28;20235;-76
2023/05/24 12:13:39;;;;;;;11.80;4.38;;;16.00;99.90;;;;;;5026045;28;20290;-76
2023/05/24 12:16:05;;;;;;;12.70;4.47;;;15.90;99.90;;;;;;5043180;28;20228;-77
2023/05/24 12:18:31;;;;;;;12.00;4.85;;;16.00;99.90;;;;;;5048701;28;20634;-78
2023/05/24 12:20:57;;;;;;;14.27;4.60;;;16.00;99.90;;;;;;5044028;28;20186;-77
2023/05/24 12:23:26;;;;;;;11.10;4.25;;;16.20;99.90;;;;;;5032575;28;20588;-79
2023/05/24 12:26:02;;;;;;;14.57;4.60;;;16.10;99.90;;;;;;5035270;28;20212;-79
2023/05/24 12:28:38;;;;;;;11.75;4.63;;;16.00;99.90;;;;;;5049733;28;20206;-79
2023/05/24 12:31:04;;;;;;;10.50;4.00;;;16.10;99.90;;;;;;5025119;28;20502;-79
2023/05/24 12:33:30;;;;;;;13.38;4.55;;;16.10;99.90;;;;;;5039074;28;20584;-78
2023/05/24 12:35:57;;;;;;;8.55;4.10;;;16.00;99.90;;;;;;5031104;28;20716;-78
2023/05/24 12:38:26;;;;;;;7.93;3.10;;;16.10;99.90;;;;;;5039513;28;20215;-78
2023/05/24 12:40:52;;;;;;;13.82;4.32;;;16.40;99.90;;;;;;5039957;28;20266;-75